createdAt,value
2018-09-18T00:02:03.189Z,42.60
2018-09-18T00:04:33.926Z,42.60
2018-09-18T00:07:05.049Z,42.50
2018-09-18T00:09:35.905Z,43.20
2018-09-18T00:12:06.686Z,42.80
2018-09-18T00:14:37.122Z,42.60
2018-09-18T00:17:08.098Z,42.70
2018-09-18T00:19:38.837Z,42.60
2018-09-18T00:22:09.980Z,42.60
2018-09-18T00:24:41.082Z,42.60
2018-09-18T00:27:11.705Z,42.50
2018-09-18T00:29:42.604Z,42.60
2018-09-18T00:32:13.612Z,42.50
2018-09-18T00:34:44.582Z,42.40
2018-09-18T00:37:15.177Z,42.50
2018-09-18T00:39:45.930Z,42.50
2018-09-18T00:42:16.643Z,42.70
2018-09-18T00:44:47.754Z,42.40
2018-09-18T00:47:19.158Z,42.40
2018-09-18T00:49:49.736Z,42.40
2018-09-18T00:52:20.337Z,42.40
2018-09-18T00:54:51.271Z,42.40
2018-09-18T00:57:23.352Z,42.40
2018-09-18T00:59:55.312Z,42.40
2018-09-18T01:02:26.510Z,42.30
2018-09-18T01:04:57.131Z,42.30
2018-09-18T01:07:28.644Z,42.30
2018-09-18T01:10:00.523Z,42.20
2018-09-18T01:12:31.408Z,42.20
2018-09-18T01:15:02.354Z,42.20
2018-09-18T01:17:33.165Z,42.20
2018-09-18T01:20:04.786Z,42.20
2018-09-18T01:22:36.042Z,42.10
2018-09-18T01:25:06.661Z,42.10
2018-09-18T01:27:37.372Z,42.10
2018-09-18T01:30:08.326Z,42.10
2018-09-18T01:32:39.383Z,42.00
2018-09-18T01:35:09.981Z,42.00
2018-09-18T01:37:40.666Z,41.90
2018-09-18T01:40:11.985Z,41.90
2018-09-18T01:42:47.592Z,41.90
2018-09-18T01:45:18.268Z,41.90
2018-09-18T01:47:49.025Z,41.80
2018-09-18T01:50:19.695Z,41.80
2018-09-18T01:52:50.735Z,41.80
2018-09-18T01:55:21.356Z,41.70
2018-09-18T01:57:52.461Z,41.70
2018-09-18T02:00:23.290Z,41.70
2018-09-18T02:02:53.871Z,41.60
2018-09-18T02:05:24.778Z,41.60
2018-09-18T02:07:55.489Z,41.60
2018-09-18T02:10:26.589Z,41.50
2018-09-18T02:12:57.111Z,41.60
2018-09-18T02:15:27.915Z,41.50
2018-09-18T02:17:58.869Z,41.50
2018-09-18T02:20:29.646Z,41.50
2018-09-18T02:23:00.304Z,41.40
2018-09-18T02:25:31.014Z,41.40
2018-09-18T02:28:01.596Z,41.30
2018-09-18T02:30:32.728Z,41.30
2018-09-18T02:33:03.581Z,41.30
2018-09-18T02:35:34.177Z,41.30
2018-09-18T02:38:05.451Z,41.20
2018-09-18T02:40:36.113Z,41.20
2018-09-18T02:43:07.946Z,41.20
2018-09-18T02:45:38.939Z,41.20
2018-09-18T02:48:10.224Z,41.20
2018-09-18T02:50:40.867Z,41.10
2018-09-18T02:53:12.113Z,41.10
2018-09-18T02:55:42.786Z,41.10
2018-09-18T02:58:14.390Z,41.10
2018-09-18T03:00:44.986Z,41.10
2018-09-18T03:03:16.008Z,41.20
2018-09-18T03:05:46.827Z,41.10
2018-09-18T03:08:17.388Z,41.20
2018-09-18T03:10:47.997Z,41.20
2018-09-18T03:13:18.648Z,41.10
2018-09-18T03:15:49.280Z,41.20
2018-09-18T03:18:19.890Z,41.20
2018-09-18T03:20:50.716Z,41.20
2018-09-18T03:23:23.360Z,41.30
2018-09-18T03:25:54.284Z,41.30
2018-09-18T03:28:25.327Z,41.30
2018-09-18T03:30:56.601Z,41.30
2018-09-18T03:33:27.229Z,41.30
2018-09-18T03:35:57.958Z,41.30
2018-09-18T03:38:28.805Z,41.30
2018-09-18T03:40:59.975Z,41.40
2018-09-18T03:43:31.253Z,41.30
2018-09-18T03:46:02.652Z,41.40
2018-09-18T03:48:33.348Z,41.40
2018-09-18T03:51:04.034Z,41.40
2018-09-18T03:53:34.676Z,41.40
2018-09-18T03:56:05.257Z,41.40
2018-09-18T03:58:36.242Z,41.40
2018-09-18T04:01:08.370Z,41.40
2018-09-18T04:03:39.529Z,42.10
2018-09-18T04:06:10.127Z,41.50
2018-09-18T04:08:41.338Z,42.10
2018-09-18T04:11:12.505Z,41.50
2018-09-18T04:13:43.256Z,41.40
2018-09-18T04:16:13.838Z,41.50
2018-09-18T04:18:44.671Z,41.60
2018-09-18T04:21:15.834Z,41.50
2018-09-18T04:23:46.499Z,41.50
2018-09-18T04:26:17.474Z,41.50
2018-09-18T04:28:48.097Z,41.50
2018-09-18T04:31:18.834Z,41.50
2018-09-18T04:33:49.469Z,41.50
2018-09-18T04:36:20.795Z,41.50
2018-09-18T04:38:51.916Z,41.50
2018-09-18T04:41:22.855Z,41.50
2018-09-18T04:43:53.734Z,41.50
2018-09-18T04:46:25.629Z,41.50
2018-09-18T04:48:56.241Z,41.50
2018-09-18T04:51:27.693Z,41.50
2018-09-18T04:53:58.597Z,41.50
2018-09-18T04:56:30.381Z,41.50
2018-09-18T04:59:02.103Z,41.40
2018-09-18T05:01:33.860Z,41.50
2018-09-18T05:04:04.551Z,41.50
2018-09-18T05:06:35.402Z,41.50
2018-09-18T05:09:09.866Z,41.50
2018-09-18T05:11:40.969Z,41.40
2018-09-18T05:14:11.878Z,41.40
2018-09-18T05:16:43.175Z,41.40
2018-09-18T05:19:14.348Z,41.50
2018-09-18T05:21:48.645Z,41.50
2018-09-18T05:24:19.660Z,41.50
2018-09-18T05:26:50.509Z,41.50
2018-09-18T05:29:21.114Z,41.50
2018-09-18T05:31:52.119Z,41.50
2018-09-18T05:34:22.711Z,41.50
2018-09-18T05:36:54.531Z,41.50
2018-09-18T05:39:25.945Z,41.50
2018-09-18T05:41:56.719Z,41.50
2018-09-18T05:44:27.778Z,41.50
2018-09-18T05:46:58.832Z,41.50
2018-09-18T05:49:31.463Z,41.60
2018-09-18T05:52:02.109Z,41.60
2018-09-18T05:54:34.415Z,41.60
2018-09-18T05:57:09.479Z,41.60
2018-09-18T05:59:40.529Z,41.50
2018-09-18T06:02:12.366Z,41.60
2018-09-18T06:04:44.390Z,41.60
2018-09-18T06:07:21.574Z,41.60
2018-09-18T06:09:52.467Z,41.60
2018-09-18T06:12:23.325Z,41.70
2018-09-18T06:14:54.605Z,41.70
2018-09-18T06:17:25.815Z,41.70
2018-09-18T06:19:57.961Z,41.80
2018-09-18T06:22:28.657Z,41.70
2018-09-18T06:24:59.550Z,41.70
2018-09-18T06:27:30.675Z,41.70
2018-09-18T06:30:01.709Z,41.70
2018-09-18T06:32:32.846Z,41.70
2018-09-18T06:35:03.966Z,41.60
2018-09-18T06:37:38.268Z,41.70
2018-09-18T06:40:09.131Z,41.80
2018-09-18T06:42:42.402Z,41.70
2018-09-18T06:45:13.055Z,41.70
2018-09-18T06:47:47.866Z,41.70
2018-09-18T06:50:19.403Z,41.60
2018-09-18T06:52:50.322Z,41.50
2018-09-18T06:55:20.874Z,41.60
2018-09-18T06:57:51.409Z,41.50
2018-09-18T07:00:22.785Z,41.50
2018-09-18T07:02:53.555Z,41.50
2018-09-18T07:05:25.078Z,41.40
2018-09-18T07:07:56.719Z,41.30
2018-09-18T07:10:27.635Z,41.30
2018-09-18T07:12:58.946Z,41.30
2018-09-18T07:15:29.731Z,41.30
2018-09-18T07:18:00.941Z,41.30
2018-09-18T07:20:31.494Z,41.30
2018-09-18T07:23:02.385Z,41.30
2018-09-18T07:25:33.134Z,41.30
2018-09-18T07:28:07.215Z,41.20
2018-09-18T07:30:40.148Z,41.30
2018-09-18T07:33:11.779Z,41.00
2018-09-18T07:35:49.000Z,41.10
2018-09-18T07:38:20.041Z,41.00
2018-09-18T07:40:51.302Z,41.00
2018-09-18T07:43:23.295Z,40.90
2018-09-18T07:45:55.041Z,40.80
2018-09-18T07:48:31.379Z,40.90
2018-09-18T07:51:02.628Z,40.80
2018-09-18T07:53:33.485Z,40.90
2018-09-18T07:56:05.964Z,40.80
2018-09-18T07:58:39.780Z,40.60
2018-09-18T08:01:10.398Z,40.50
2018-09-18T08:03:41.109Z,40.50
2018-09-18T08:06:11.778Z,40.50
2018-09-18T08:08:42.615Z,40.40
2018-09-18T08:11:13.232Z,40.40
2018-09-18T08:13:43.896Z,40.50
2018-09-18T08:16:16.765Z,40.40
2018-09-18T08:18:49.178Z,40.40
2018-09-18T08:21:20.226Z,40.40
2018-09-18T08:23:52.277Z,40.30
2018-09-18T08:26:23.041Z,40.10
2018-09-18T08:28:54.832Z,40.00
2018-09-18T08:31:26.437Z,39.90
2018-09-18T08:33:57.437Z,39.90
2018-09-18T08:36:28.479Z,39.70
2018-09-18T08:38:59.297Z,39.70
2018-09-18T08:41:30.607Z,39.50
2018-09-18T08:44:02.294Z,39.40
2018-09-18T08:46:33.296Z,39.60
2018-09-18T08:49:04.857Z,39.60
2018-09-18T08:51:37.900Z,39.50
2018-09-18T08:54:09.902Z,39.50
2018-09-18T08:56:42.901Z,39.50
2018-09-18T08:59:14.447Z,39.40
2018-09-18T09:01:45.727Z,39.30
2018-09-18T09:04:17.342Z,39.10
2018-09-18T09:06:49.289Z,39.00
2018-09-18T09:09:20.686Z,39.20
2018-09-18T09:11:52.046Z,39.10
2018-09-18T09:14:23.443Z,38.90
2018-09-18T09:16:57.063Z,38.70
2018-09-18T09:19:30.896Z,38.80
2018-09-18T09:22:02.654Z,38.40
2018-09-18T09:24:34.253Z,38.60
2018-09-18T09:27:05.370Z,38.50
2018-09-18T09:29:36.701Z,38.40
2018-09-18T09:32:09.194Z,38.70
2018-09-18T09:34:40.588Z,38.70
2018-09-18T09:37:12.207Z,38.80
2018-09-18T09:39:45.525Z,39.00
2018-09-18T09:42:17.395Z,38.80
2018-09-18T09:44:48.778Z,38.70
2018-09-18T09:47:21.717Z,38.40
2018-09-18T09:49:53.606Z,38.60
2018-09-18T09:52:25.793Z,38.40
2018-09-18T09:54:57.084Z,38.40
2018-09-18T09:57:28.886Z,38.20
2018-09-18T10:00:01.014Z,38.10
2018-09-18T10:02:36.081Z,37.50
2018-09-18T10:05:07.359Z,37.20
2018-09-18T10:07:38.697Z,36.90
2018-09-18T10:10:10.149Z,36.70
2018-09-18T10:12:42.061Z,36.00
2018-09-18T10:15:13.515Z,35.60
2018-09-18T10:17:45.928Z,35.30
2018-09-18T10:20:17.417Z,34.20
2018-09-18T10:22:49.664Z,33.90
2018-09-18T10:25:20.922Z,33.30
2018-09-18T10:27:52.324Z,33.00
2018-09-18T10:30:23.911Z,32.80
2018-09-18T10:32:55.339Z,32.60
2018-09-18T10:35:27.094Z,32.30
2018-09-18T10:37:58.468Z,31.90
2018-09-18T10:40:29.773Z,31.30
2018-09-18T10:43:01.360Z,31.00
2018-09-18T10:45:32.793Z,30.60
2018-09-18T10:48:04.343Z,30.20
2018-09-18T10:50:35.760Z,30.30
2018-09-18T10:53:07.047Z,30.20
2018-09-18T10:55:39.442Z,30.10
2018-09-18T10:58:11.027Z,30.00
2018-09-18T11:00:42.484Z,29.80
2018-09-18T11:03:13.416Z,29.40
2018-09-18T11:05:44.389Z,29.00
2018-09-18T11:08:15.563Z,29.00
2018-09-18T11:10:47.943Z,28.80
2018-09-18T11:13:19.435Z,28.40
2018-09-18T11:15:51.262Z,28.30
2018-09-18T11:18:22.395Z,28.00
2018-09-18T11:20:53.493Z,27.80
2018-09-18T11:23:24.708Z,27.80
2018-09-18T11:25:56.809Z,27.70
2018-09-18T11:28:27.985Z,27.50
2018-09-18T11:31:00.817Z,27.20
2018-09-18T11:33:33.925Z,27.20
2018-09-18T11:36:04.959Z,27.00
2018-09-18T11:38:37.584Z,26.80
2018-09-18T11:41:10.148Z,27.10
2018-09-18T11:43:41.438Z,26.30
2018-09-18T11:46:13.156Z,26.00
2018-09-18T11:48:44.191Z,25.80
2018-09-18T11:51:15.599Z,25.80
2018-09-18T11:53:46.801Z,24.80
2018-09-18T11:56:17.685Z,24.50
2018-09-18T11:58:49.946Z,24.50
2018-09-18T12:01:22.369Z,24.60
2018-09-18T12:03:56.117Z,24.10
2018-09-18T12:06:28.292Z,23.90
2018-09-18T12:09:03.730Z,22.70
2018-09-18T12:11:38.522Z,22.80
2018-09-18T12:14:12.531Z,22.60
2018-09-18T12:16:45.871Z,22.50
2018-09-18T12:19:19.776Z,22.30
2018-09-18T12:21:53.169Z,22.60
2018-09-18T12:24:24.629Z,22.30
2018-09-18T12:26:56.393Z,21.90
2018-09-18T12:29:29.199Z,22.10
2018-09-18T12:32:00.171Z,21.80
2018-09-18T12:34:31.179Z,21.80
2018-09-18T12:37:02.082Z,21.60
2018-09-18T12:39:34.248Z,21.60
2018-09-18T12:42:05.936Z,21.70
2018-09-18T12:44:39.326Z,21.40
2018-09-18T12:47:10.627Z,20.80
2018-09-18T12:49:43.439Z,20.70
2018-09-18T12:52:17.352Z,20.90
2018-09-18T12:54:49.463Z,20.90
2018-09-18T12:57:21.163Z,20.60
2018-09-18T12:59:52.667Z,20.40
2018-09-18T13:02:23.937Z,20.50
2018-09-18T13:04:54.899Z,20.30
2018-09-18T13:07:28.941Z,20.10
2018-09-18T13:10:04.323Z,19.70
2018-09-18T13:12:40.130Z,19.70
2018-09-18T13:15:15.571Z,19.60
2018-09-18T13:17:47.342Z,19.80
2018-09-18T13:20:21.818Z,19.90
2018-09-18T13:22:56.437Z,20.00
2018-09-18T13:25:30.346Z,20.20
2018-09-18T13:28:02.089Z,20.50
2018-09-18T13:30:33.610Z,20.70
2018-09-18T13:33:07.925Z,20.90
2018-09-18T13:35:39.310Z,21.00
2018-09-18T13:38:11.836Z,21.10
2018-09-18T13:40:43.847Z,21.30
2018-09-18T13:43:15.348Z,21.20
2018-09-18T13:45:48.270Z,21.50
2018-09-18T13:48:19.619Z,21.70
2018-09-18T13:50:52.198Z,21.90
2018-09-18T13:53:23.471Z,22.10
2018-09-18T13:55:54.831Z,22.20
2018-09-18T13:58:26.382Z,22.30
2018-09-18T14:00:57.732Z,22.50
2018-09-18T14:03:28.987Z,22.50
2018-09-18T14:06:00.207Z,22.50
2018-09-18T14:08:31.798Z,22.60
2018-09-18T14:11:03.170Z,22.70
2018-09-18T14:13:39.650Z,22.80
2018-09-18T14:16:14.060Z,23.00
2018-09-18T14:18:45.740Z,22.90
2018-09-18T14:21:20.272Z,22.90
2018-09-18T14:23:51.906Z,22.90
2018-09-18T14:26:23.601Z,22.90
2018-09-18T14:28:58.060Z,22.80
2018-09-18T14:31:29.969Z,22.80
2018-09-18T14:34:01.269Z,22.50
2018-09-18T14:36:33.517Z,22.60
2018-09-18T14:39:07.587Z,22.40
2018-09-18T14:41:39.199Z,22.40
2018-09-18T14:44:11.041Z,22.50
2018-09-18T14:46:42.376Z,22.80
2018-09-18T14:49:13.979Z,22.80
2018-09-18T14:51:45.150Z,22.90
2018-09-18T14:54:20.928Z,22.90
2018-09-18T14:56:52.463Z,23.00
2018-09-18T14:59:23.915Z,23.00
2018-09-18T15:01:55.007Z,23.10
2018-09-18T15:04:26.285Z,23.30
2018-09-18T15:06:57.887Z,23.40
2018-09-18T15:09:31.331Z,23.60
2018-09-18T15:12:05.505Z,24.20
2018-09-18T15:14:37.361Z,23.90
2018-09-18T15:17:09.395Z,23.90
2018-09-18T15:19:40.688Z,24.10
2018-09-18T15:22:13.739Z,24.80
2018-09-18T15:24:47.735Z,24.40
2018-09-18T15:27:21.771Z,24.50
2018-09-18T15:29:54.120Z,24.60
2018-09-18T15:32:31.138Z,24.70
2018-09-18T15:35:10.073Z,24.60
2018-09-18T15:37:42.223Z,24.50
2018-09-18T15:40:14.121Z,24.70
2018-09-18T15:42:50.511Z,24.90
2018-09-18T15:45:23.917Z,24.90
2018-09-18T15:47:57.297Z,25.00
2018-09-18T15:50:31.430Z,25.20
2018-09-18T15:53:04.579Z,25.30
2018-09-18T15:55:35.851Z,25.30
2018-09-18T15:58:07.421Z,25.60
2018-09-18T16:00:42.914Z,25.60
2018-09-18T16:03:18.940Z,25.70
2018-09-18T16:05:58.913Z,25.70
2018-09-18T16:08:33.667Z,25.90
2018-09-18T16:11:08.501Z,26.00
2018-09-18T16:13:39.883Z,26.10
2018-09-18T16:16:11.380Z,26.30
2018-09-18T16:18:42.969Z,26.60
2018-09-18T16:21:14.183Z,26.60
2018-09-18T16:23:47.503Z,26.90
2018-09-18T16:26:18.940Z,26.90
2018-09-18T16:28:50.770Z,26.90
2018-09-18T16:31:23.154Z,27.10
2018-09-18T16:33:54.375Z,27.20
2018-09-18T16:36:26.138Z,27.30
2018-09-18T16:38:57.438Z,27.40
2018-09-18T16:41:35.125Z,27.50
2018-09-18T16:44:06.995Z,27.40
2018-09-18T16:46:38.464Z,27.30
2018-09-18T16:49:14.369Z,27.30
2018-09-18T16:51:52.907Z,27.90
2018-09-18T16:54:26.630Z,27.40
2018-09-18T16:57:01.017Z,27.50
2018-09-18T16:59:32.739Z,27.50
2018-09-18T17:02:05.008Z,27.50
2018-09-18T17:04:36.477Z,27.60
2018-09-18T17:07:09.688Z,27.60
2018-09-18T17:09:43.501Z,27.70
2018-09-18T17:12:19.189Z,27.70
2018-09-18T17:14:56.374Z,27.80
2018-09-18T17:17:27.942Z,27.90
2018-09-18T17:20:04.067Z,28.00
2018-09-18T17:22:39.768Z,28.00
2018-09-18T17:25:13.929Z,28.10
2018-09-18T17:27:47.635Z,28.20
2018-09-18T17:30:21.043Z,28.20
2018-09-18T17:32:54.029Z,28.30
2018-09-18T17:35:25.808Z,28.50
2018-09-18T17:38:00.633Z,28.50
2018-09-18T17:40:31.948Z,28.60
2018-09-18T17:43:03.658Z,28.60
2018-09-18T17:45:34.924Z,28.70
2018-09-18T17:48:06.181Z,28.90
2018-09-18T17:50:40.059Z,28.90
2018-09-18T17:53:14.182Z,29.00
2018-09-18T17:55:48.294Z,29.10
2018-09-18T17:58:22.507Z,29.10
2018-09-18T18:00:59.285Z,29.20
2018-09-18T18:03:32.551Z,29.20
2018-09-18T18:06:04.035Z,29.90
2018-09-18T18:08:35.488Z,29.30
2018-09-18T18:11:07.206Z,29.40
2018-09-18T18:13:38.406Z,29.60
2018-09-18T18:16:10.285Z,29.70
2018-09-18T18:18:42.776Z,29.80
2018-09-18T18:21:14.318Z,29.80
2018-09-18T18:23:45.978Z,30.00
2018-09-18T18:26:17.282Z,30.00
2018-09-18T18:28:48.199Z,30.10
2018-09-18T18:31:22.581Z,30.10
2018-09-18T18:33:56.304Z,30.90
2018-09-18T18:36:26.897Z,30.40
2018-09-18T18:39:00.518Z,30.60
2018-09-18T18:41:34.254Z,30.80
2018-09-18T18:44:08.448Z,31.00
2018-09-18T18:46:42.165Z,31.10
2018-09-18T18:49:15.027Z,31.20
2018-09-18T18:51:46.120Z,31.40
2018-09-18T18:54:19.285Z,31.50
2018-09-18T18:56:52.205Z,32.40
2018-09-18T18:59:25.763Z,31.90
2018-09-18T19:01:59.369Z,32.00
2018-09-18T19:04:34.704Z,32.30
2018-09-18T19:07:05.959Z,32.40
2018-09-18T19:09:39.865Z,32.40
2018-09-18T19:12:14.764Z,32.60
2018-09-18T19:14:50.040Z,32.90
2018-09-18T19:17:21.991Z,33.10
2018-09-18T19:19:52.743Z,33.30
2018-09-18T19:22:27.043Z,33.50
2018-09-18T19:24:59.139Z,33.50
2018-09-18T19:27:33.023Z,33.60
2018-09-18T19:30:09.085Z,33.70
2018-09-18T19:32:43.656Z,33.90
2018-09-18T19:35:16.704Z,34.20
2018-09-18T19:37:49.120Z,34.30
2018-09-18T19:40:26.214Z,34.50
2018-09-18T19:43:00.074Z,34.60
2018-09-18T19:45:32.847Z,34.80
2018-09-18T19:48:07.292Z,35.00
2018-09-18T19:50:40.352Z,35.50
2018-09-18T19:53:13.456Z,35.30
2018-09-18T19:55:46.243Z,35.40
2018-09-18T19:58:19.028Z,35.60
2018-09-18T20:00:51.618Z,35.80
2018-09-18T20:03:24.480Z,35.90
2018-09-18T20:05:57.369Z,36.10
2018-09-18T20:08:30.164Z,36.20
2018-09-18T20:11:01.183Z,36.40
2018-09-18T20:13:31.930Z,36.50
2018-09-18T20:16:02.712Z,36.60
2018-09-18T20:18:35.352Z,36.80
2018-09-18T20:21:06.883Z,36.90
2018-09-18T20:23:37.559Z,37.10
2018-09-18T20:26:08.929Z,37.20
2018-09-18T20:28:39.951Z,37.40
2018-09-18T20:31:11.807Z,37.50
2018-09-18T20:33:42.462Z,37.60
2018-09-18T20:36:15.598Z,37.80
2018-09-18T20:38:49.069Z,38.00
2018-09-18T20:41:21.951Z,38.00
2018-09-18T20:43:54.627Z,38.20
2018-09-18T20:46:27.928Z,38.30
2018-09-18T20:48:58.759Z,38.30
2018-09-18T20:51:29.662Z,38.40
2018-09-18T20:54:00.376Z,38.60
2018-09-18T20:56:31.375Z,38.30
2018-09-18T20:59:02.032Z,38.70
2018-09-18T21:01:32.829Z,38.90
2018-09-18T21:04:03.968Z,38.90
2018-09-18T21:06:34.574Z,39.20
2018-09-18T21:09:10.966Z,39.20
2018-09-18T21:11:43.600Z,39.40
2018-09-18T21:14:18.140Z,39.50
2018-09-18T21:16:51.121Z,39.70
2018-09-18T21:19:21.893Z,39.70
2018-09-18T21:21:52.562Z,39.80
2018-09-18T21:24:23.622Z,40.10
2018-09-18T21:26:54.728Z,40.10
2018-09-18T21:29:25.468Z,40.20
2018-09-18T21:31:56.544Z,40.40
2018-09-18T21:34:27.247Z,40.50
2018-09-18T21:36:58.261Z,40.70
2018-09-18T21:39:30.734Z,40.70
2018-09-18T21:42:03.086Z,40.70
2018-09-18T21:44:36.489Z,40.80
2018-09-18T21:47:07.233Z,41.00
2018-09-18T21:49:38.261Z,41.00
2018-09-18T21:52:09.133Z,41.30
2018-09-18T21:54:40.097Z,41.50
2018-09-18T21:57:10.650Z,41.60
2018-09-18T21:59:41.383Z,41.80
2018-09-18T22:02:12.042Z,41.80
2018-09-18T22:04:42.867Z,41.80
2018-09-18T22:07:13.519Z,42.00
2018-09-18T22:09:44.505Z,41.90
2018-09-18T22:12:16.896Z,42.10
2018-09-18T22:14:47.659Z,42.40
2018-09-18T22:17:18.699Z,42.50
2018-09-18T22:19:49.565Z,42.70
2018-09-18T22:22:20.563Z,42.80
2018-09-18T22:24:51.564Z,43.00
2018-09-18T22:27:29.087Z,42.90
2018-09-18T22:29:59.788Z,43.00
2018-09-18T22:32:30.436Z,43.10
2018-09-18T22:35:01.200Z,43.40
2018-09-18T22:37:31.830Z,43.50
2018-09-18T22:40:02.591Z,43.60
2018-09-18T22:42:33.276Z,43.80
2018-09-18T22:45:04.661Z,43.70
2018-09-18T22:47:35.998Z,43.80
2018-09-18T22:50:10.216Z,44.00
2018-09-18T22:52:49.928Z,44.10
2018-09-18T22:55:21.852Z,44.20
2018-09-18T22:57:55.892Z,44.30
2018-09-18T23:00:30.821Z,44.40
2018-09-18T23:03:03.407Z,44.50
2018-09-18T23:05:35.999Z,44.70
2018-09-18T23:08:09.293Z,44.70
2018-09-18T23:10:43.109Z,44.80
2018-09-18T23:13:17.421Z,44.90
2018-09-18T23:15:52.459Z,44.90
2018-09-18T23:18:26.473Z,44.90
2018-09-18T23:21:00.068Z,45.00
2018-09-18T23:23:33.551Z,45.10
2018-09-18T23:26:06.668Z,45.10
2018-09-18T23:28:37.555Z,45.30
2018-09-18T23:31:10.386Z,45.30
2018-09-18T23:33:41.442Z,45.50
2018-09-18T23:36:12.127Z,46.40
2018-09-18T23:38:43.050Z,45.80
2018-09-18T23:41:16.614Z,45.70
2018-09-18T23:43:47.387Z,45.90
2018-09-18T23:46:18.159Z,45.90
2018-09-18T23:48:48.802Z,46.00
2018-09-18T23:51:19.658Z,46.00
2018-09-18T23:53:50.557Z,46.10
2018-09-18T23:56:22.048Z,46.20
2018-09-18T23:58:52.999Z,46.30
